createdAt,value
2022-11-25T00:07:21.381Z,978.33
2022-11-25T00:22:23.782Z,978.36
2022-11-25T00:37:26.230Z,978.25
2022-11-25T00:52:28.586Z,978.1
2022-11-25T01:07:31.370Z,978.16
2022-11-25T01:22:33.753Z,977.97
2022-11-25T01:37:36.180Z,977.97
2022-11-25T01:52:38.758Z,977.94
2022-11-25T02:07:41.320Z,977.97
2022-11-25T02:22:43.619Z,977.85
2022-11-25T02:37:45.785Z,977.71
2022-11-25T02:52:48.132Z,977.73
2022-11-25T03:07:50.396Z,977.66
2022-11-25T03:22:52.781Z,977.65
2022-11-25T03:37:55.318Z,977.49
2022-11-25T03:52:57.814Z,977.48
2022-11-25T04:08:00.313Z,977.44
2022-11-25T04:23:02.733Z,977.3
2022-11-25T04:38:05.230Z,977.28
2022-11-25T04:53:07.545Z,977.35
2022-11-25T05:08:09.797Z,977.15
2022-11-25T05:23:12.969Z,976.93
2022-11-25T05:38:15.376Z,976.73
2022-11-25T05:53:18.018Z,976.63
2022-11-25T06:08:20.779Z,976.31
2022-11-25T06:23:23.396Z,976.08
2022-11-25T06:38:25.883Z,976.05
2022-11-25T06:53:28.207Z,975.67
2022-11-25T07:08:33.989Z,975.79
2022-11-25T07:23:37.213Z,975.53
2022-11-25T07:38:43.571Z,975.44
2022-11-25T07:53:48.869Z,975.08
2022-11-25T08:08:51.159Z,974.99
2022-11-25T08:23:53.598Z,974.97
2022-11-25T08:38:55.944Z,974.63
2022-11-25T08:53:58.563Z,974.47
2022-11-25T09:09:01.258Z,974.38
2022-11-25T09:24:03.745Z,974.31
2022-11-25T09:39:06.391Z,974.06
2022-11-25T09:54:08.675Z,973.8
2022-11-25T10:09:11.024Z,973.67
2022-11-25T10:24:13.210Z,973.53
2022-11-25T10:39:15.504Z,973.21
2022-11-25T10:54:19.527Z,973
2022-11-25T11:09:23.925Z,972.6
2022-11-25T11:24:26.194Z,972.47
2022-11-25T11:39:28.395Z,972.06
2022-11-25T11:54:30.761Z,971.76
2022-11-25T12:09:33.037Z,971.41
2022-11-25T12:24:35.830Z,971.06
2022-11-25T12:39:38.230Z,971.09
2022-11-25T12:54:40.492Z,971.04
2022-11-25T13:09:42.796Z,970.69
2022-11-25T13:24:44.997Z,970.59
2022-11-25T13:39:47.249Z,970.44
2022-11-25T13:54:49.502Z,970.31
2022-11-25T14:09:52.069Z,970.23
2022-11-25T14:24:54.248Z,969.96
2022-11-25T14:39:56.590Z,969.87
2022-11-25T14:54:59.112Z,969.63
2022-11-25T15:10:01.437Z,969.59
2022-11-25T15:25:03.744Z,969.41
2022-11-25T15:40:06.006Z,969.26
2022-11-25T15:55:08.273Z,968.78
2022-11-25T16:10:10.629Z,968.63
2022-11-25T16:25:13.036Z,968.36
2022-11-25T16:40:15.362Z,968.17
2022-11-25T16:55:17.649Z,967.94
2022-11-25T17:10:19.879Z,967.75
2022-11-25T17:25:22.124Z,967.3
2022-11-25T17:40:24.326Z,967.33
2022-11-25T17:55:26.615Z,967.22
2022-11-25T18:10:28.928Z,967.37
2022-11-25T18:25:31.167Z,967.16
2022-11-25T18:40:33.429Z,967.14
2022-11-25T18:55:35.639Z,967.03
2022-11-25T19:10:37.860Z,966.91
2022-11-25T19:25:40.039Z,966.8
2022-11-25T19:40:42.242Z,966.5
2022-11-25T19:55:44.658Z,966.61
2022-11-25T20:10:46.871Z,966.84
2022-11-25T20:25:49.260Z,967.02
2022-11-25T20:40:51.506Z,967.08
2022-11-25T20:55:53.713Z,966.89
2022-11-25T21:10:55.971Z,966.65
2022-11-25T21:25:58.260Z,966.63
2022-11-25T21:41:00.475Z,966.33
2022-11-25T21:56:02.649Z,966.1
2022-11-25T22:11:04.903Z,965.77
2022-11-25T22:26:07.134Z,965.95
2022-11-25T22:41:09.573Z,966.08
2022-11-25T22:56:11.793Z,965.92
2022-11-25T23:11:14.039Z,965.87
2022-11-25T23:26:16.481Z,966.03
2022-11-25T23:41:18.722Z,965.94
2022-11-25T23:56:21.159Z,966.14
